createdAt,value
2023-02-23T00:01:20.070Z,8.00
2023-02-23T00:03:49.210Z,7.68
2023-02-23T00:06:17.595Z,8.93
2023-02-23T00:08:47.831Z,7.00
2023-02-23T00:11:16.815Z,7.45
2023-02-23T00:13:46.282Z,5.97
2023-02-23T00:16:15.038Z,8.07
2023-02-23T00:18:51.002Z,5.85
2023-02-23T00:21:20.086Z,6.00
2023-02-23T00:23:51.667Z,5.72
2023-02-23T00:26:20.881Z,4.57
2023-02-23T00:28:49.125Z,4.68
2023-02-23T00:31:16.758Z,4.68
2023-02-23T00:33:44.288Z,3.72
2023-02-23T00:36:14.616Z,4.15
2023-02-23T00:38:42.427Z,2.85
2023-02-23T00:41:14.540Z,2.40
2023-02-23T00:43:47.626Z,2.58
2023-02-23T00:46:19.236Z,2.60
2023-02-23T00:48:46.814Z,2.85
2023-02-23T00:51:14.419Z,2.15
2023-02-23T00:53:42.228Z,2.92
2023-02-23T00:56:10.601Z,4.25
2023-02-23T00:58:38.202Z,6.20
2023-02-23T01:01:14.574Z,11.70
2023-02-23T01:03:43.226Z,11.35
2023-02-23T01:06:12.471Z,14.07
2023-02-23T01:08:41.715Z,14.38
2023-02-23T01:11:10.456Z,16.73
2023-02-23T01:13:38.294Z,17.02
2023-02-23T01:16:09.092Z,16.50
2023-02-23T01:18:36.519Z,15.05
2023-02-23T01:21:05.582Z,16.90
2023-02-23T01:23:32.973Z,16.42
2023-02-23T01:26:00.254Z,13.73
2023-02-23T01:28:27.511Z,13.88
2023-02-23T01:30:54.863Z,11.85
2023-02-23T01:33:22.157Z,12.02
2023-02-23T01:36:01.448Z,8.73
2023-02-23T01:38:28.678Z,8.80
2023-02-23T01:40:55.940Z,10.43
2023-02-23T01:43:26.184Z,11.05
2023-02-23T01:45:55.568Z,13.45
2023-02-23T01:48:32.729Z,14.65
2023-02-23T01:50:59.929Z,8.65
2023-02-23T01:53:34.004Z,9.18
2023-02-23T01:56:04.117Z,8.43
2023-02-23T01:58:32.302Z,6.80
2023-02-23T02:01:03.405Z,7.85
2023-02-23T02:03:34.142Z,6.03
2023-02-23T02:06:02.132Z,5.15
2023-02-23T02:08:31.112Z,4.57
2023-02-23T02:10:58.568Z,4.68
2023-02-23T02:17:10.229Z,5.28
2023-02-23T02:19:40.288Z,5.13
2023-02-23T02:22:18.700Z,4.47
2023-02-23T02:25:06.622Z,5.25
2023-02-23T02:27:43.692Z,6.63
2023-02-23T02:30:16.833Z,7.47
2023-02-23T02:32:58.983Z,9.15
2023-02-23T02:35:38.073Z,8.15
2023-02-23T02:38:11.455Z,8.38
2023-02-23T02:41:03.688Z,7.93
2023-02-23T02:43:42.882Z,9.05
2023-02-23T02:46:22.472Z,7.70
2023-02-23T02:48:57.698Z,8.00
2023-02-23T02:51:28.577Z,9.10
2023-02-23T02:54:11.194Z,6.57
2023-02-23T02:56:40.574Z,7.18
2023-02-23T02:59:31.536Z,4.38
2023-02-23T03:02:17.504Z,4.22
2023-02-23T03:05:03.756Z,3.08
2023-02-23T03:08:09.809Z,3.05
2023-02-23T03:11:04.722Z,4.07
2023-02-23T03:13:50.757Z,3.83
2023-02-23T03:16:36.642Z,2.47
2023-02-23T03:19:40.810Z,3.88
2023-02-23T03:22:40.328Z,2.67
2023-02-23T03:25:26.405Z,2.38
2023-02-23T03:28:17.114Z,2.88
2023-02-23T03:31:11.216Z,2.22
2023-02-23T03:34:15.083Z,2.05
2023-02-23T03:37:04.112Z,2.05
2023-02-23T03:39:50.247Z,1.42
2023-02-23T03:42:38.521Z,1.52
2023-02-23T03:45:27.302Z,1.55
2023-02-23T03:48:14.829Z,1.67
2023-02-23T03:51:03.055Z,1.85
2023-02-23T03:53:53.339Z,1.20
2023-02-23T03:56:40.646Z,1.25
2023-02-23T03:59:27.696Z,2.08
2023-02-23T04:02:15.160Z,1.92
2023-02-23T04:05:02.642Z,2.78
2023-02-23T04:07:48.773Z,1.98
2023-02-23T04:10:35.889Z,1.95
2023-02-23T04:13:14.715Z,1.73
2023-02-23T04:15:49.820Z,1.30
2023-02-23T04:18:19.026Z,1.67
2023-02-23T04:20:46.343Z,1.98
2023-02-23T04:23:13.652Z,1.23
2023-02-23T04:25:40.850Z,1.38
2023-02-23T04:28:08.253Z,1.50
2023-02-23T04:30:35.496Z,1.23
2023-02-23T04:33:02.779Z,1.67
2023-02-23T04:35:31.371Z,1.38
2023-02-23T04:37:59.127Z,1.67
2023-02-23T04:40:27.028Z,1.15
2023-02-23T04:42:55.520Z,1.40
2023-02-23T04:45:23.628Z,1.55
2023-02-23T04:47:51.109Z,2.90
2023-02-23T04:50:18.481Z,3.50
2023-02-23T04:52:45.728Z,3.63
2023-02-23T04:55:23.572Z,3.78
2023-02-23T04:57:51.236Z,2.92
2023-02-23T05:00:19.356Z,3.00
2023-02-23T05:02:46.615Z,1.77
2023-02-23T05:05:13.862Z,2.35
2023-02-23T05:07:41.077Z,2.53
2023-02-23T05:10:08.781Z,1.30
2023-02-23T05:12:36.053Z,1.83
2023-02-23T05:15:03.331Z,2.72
2023-02-23T05:17:30.124Z,3.78
2023-02-23T05:19:57.372Z,3.45
2023-02-23T05:22:24.594Z,2.70
2023-02-23T05:24:51.743Z,1.65
2023-02-23T05:27:18.545Z,2.05
2023-02-23T05:29:45.365Z,1.42
2023-02-23T05:32:12.267Z,1.35
2023-02-23T05:34:39.396Z,2.15
2023-02-23T05:37:06.570Z,2.95
2023-02-23T05:39:33.379Z,2.17
2023-02-23T05:42:00.152Z,2.00
2023-02-23T05:44:27.155Z,1.83
2023-02-23T05:46:54.050Z,1.80
2023-02-23T05:49:20.881Z,3.28
2023-02-23T05:51:47.657Z,3.25
2023-02-23T05:54:14.459Z,3.00
2023-02-23T05:56:42.544Z,3.03
2023-02-23T05:59:09.483Z,3.08
2023-02-23T06:01:36.611Z,2.20
2023-02-23T06:04:05.822Z,5.18
2023-02-23T06:06:32.977Z,3.08
2023-02-23T06:09:00.027Z,2.10
2023-02-23T06:11:26.833Z,2.90
2023-02-23T06:13:53.724Z,2.65
2023-02-23T06:16:21.126Z,3.47
2023-02-23T06:18:48.015Z,5.18
2023-02-23T06:21:14.866Z,4.32
2023-02-23T06:23:41.662Z,6.55
2023-02-23T06:26:08.937Z,7.28
2023-02-23T06:28:36.548Z,10.20
2023-02-23T06:31:03.536Z,8.70
2023-02-23T06:33:30.388Z,7.68
2023-02-23T06:35:57.293Z,7.10
2023-02-23T06:38:24.160Z,7.93
2023-02-23T06:40:51.015Z,6.03
2023-02-23T06:43:17.753Z,8.05
2023-02-23T06:45:45.936Z,6.85
2023-02-23T06:48:12.692Z,5.80
2023-02-23T06:50:39.528Z,4.75
2023-02-23T06:53:06.372Z,6.07
2023-02-23T06:55:33.189Z,5.10
2023-02-23T06:58:00.122Z,4.50
2023-02-23T07:00:27.044Z,5.97
2023-02-23T07:02:53.915Z,5.78
2023-02-23T07:05:21.055Z,7.95
2023-02-23T07:07:47.900Z,9.48
2023-02-23T07:10:14.733Z,8.68
2023-02-23T07:12:41.714Z,8.77
2023-02-23T07:15:10.102Z,6.60
2023-02-23T07:17:37.093Z,7.03
2023-02-23T07:20:04.454Z,6.00
2023-02-23T07:22:31.326Z,4.63
2023-02-23T07:24:58.174Z,4.47
2023-02-23T07:27:25.288Z,3.72
2023-02-23T07:29:52.126Z,3.08
2023-02-23T07:32:19.061Z,4.57
2023-02-23T07:34:47.741Z,4.30
2023-02-23T07:37:14.731Z,5.93
2023-02-23T07:39:41.987Z,8.23
2023-02-23T07:42:08.741Z,11.85
2023-02-23T07:44:35.585Z,13.30
2023-02-23T07:47:02.439Z,15.55
2023-02-23T07:49:30.546Z,14.23
2023-02-23T07:51:57.377Z,14.63
2023-02-23T07:54:25.478Z,12.77
2023-02-23T07:56:52.616Z,12.23
2023-02-23T07:59:19.421Z,13.80
2023-02-23T08:01:46.511Z,13.07
2023-02-23T08:04:13.334Z,12.27
2023-02-23T08:06:40.176Z,13.65
2023-02-23T08:09:07.394Z,11.25
2023-02-23T08:11:34.275Z,11.73
2023-02-23T08:14:01.090Z,9.65
2023-02-23T08:16:32.452Z,12.30
2023-02-23T08:19:00.295Z,12.35
2023-02-23T08:21:29.101Z,10.93
2023-02-23T08:23:56.702Z,10.45
2023-02-23T08:26:25.378Z,7.47
2023-02-23T08:28:53.091Z,8.48
2023-02-23T08:31:24.124Z,11.95
2023-02-23T08:33:52.120Z,7.07
2023-02-23T08:36:20.920Z,7.47
2023-02-23T08:38:48.623Z,8.02
2023-02-23T08:41:16.614Z,8.73
2023-02-23T08:43:44.297Z,10.38
2023-02-23T08:46:11.904Z,11.00
2023-02-23T08:48:40.511Z,10.90
2023-02-23T08:51:08.532Z,11.70
2023-02-23T08:53:36.628Z,10.60
2023-02-23T08:56:06.293Z,11.63
2023-02-23T08:58:34.356Z,10.40
2023-02-23T09:01:01.738Z,9.60
2023-02-23T09:03:33.349Z,9.85
2023-02-23T09:06:06.639Z,9.18
2023-02-23T09:08:33.975Z,10.20
2023-02-23T09:11:01.223Z,10.20
2023-02-23T09:13:28.574Z,8.95
2023-02-23T09:15:55.883Z,6.57
2023-02-23T09:18:24.468Z,6.93
2023-02-23T09:20:52.072Z,5.60
2023-02-23T09:23:19.392Z,5.38
2023-02-23T09:25:47.186Z,5.25
2023-02-23T09:28:18.705Z,4.38
2023-02-23T09:30:46.758Z,3.90
2023-02-23T09:33:14.249Z,2.50
2023-02-23T09:35:41.742Z,1.80
2023-02-23T09:38:09.540Z,2.00
2023-02-23T09:40:53.129Z,2.47
2023-02-23T09:43:20.515Z,2.97
2023-02-23T09:45:59.589Z,2.53
2023-02-23T09:48:28.396Z,2.90
2023-02-23T09:50:59.651Z,3.53
2023-02-23T09:53:33.997Z,2.42
2023-02-23T09:56:01.816Z,2.13
2023-02-23T09:58:30.326Z,2.67
2023-02-23T10:01:06.652Z,3.08
2023-02-23T10:03:35.688Z,2.22
2023-02-23T10:06:05.216Z,3.95
2023-02-23T10:08:51.475Z,3.60
2023-02-23T10:11:24.853Z,3.13
2023-02-23T10:13:54.146Z,3.42
2023-02-23T10:16:27.864Z,4.20
2023-02-23T10:18:56.465Z,6.10
2023-02-23T10:21:39.279Z,4.47
2023-02-23T10:24:10.582Z,3.00
2023-02-23T10:26:44.267Z,4.57
2023-02-23T10:29:23.378Z,3.85
2023-02-23T10:31:53.122Z,5.88
2023-02-23T10:34:22.437Z,5.45
2023-02-23T10:36:50.730Z,6.95
2023-02-23T10:39:18.188Z,7.50
2023-02-23T10:41:45.761Z,7.93
2023-02-23T10:44:19.475Z,8.02
2023-02-23T10:46:50.315Z,9.02
2023-02-23T10:49:22.474Z,7.47
2023-02-23T10:51:51.934Z,7.25
2023-02-23T10:54:37.949Z,6.68
2023-02-23T10:57:06.447Z,7.85
2023-02-23T10:59:34.718Z,5.45
2023-02-23T11:02:15.816Z,4.60
2023-02-23T11:04:53.071Z,5.60
2023-02-23T11:07:23.711Z,6.68
2023-02-23T11:09:52.938Z,6.10
2023-02-23T11:12:22.709Z,6.53
2023-02-23T11:14:50.997Z,7.07
2023-02-23T11:17:30.649Z,4.90
2023-02-23T11:20:19.367Z,8.55
2023-02-23T11:22:46.795Z,6.15
2023-02-23T11:25:16.602Z,5.57
2023-02-23T11:27:51.660Z,5.65
2023-02-23T11:30:21.615Z,4.78
2023-02-23T11:32:52.547Z,3.97
2023-02-23T11:35:22.586Z,3.85
2023-02-23T11:37:50.586Z,3.50
2023-02-23T11:40:27.453Z,6.28
2023-02-23T11:42:57.813Z,3.15
2023-02-23T11:45:27.674Z,2.92
2023-02-23T11:47:56.243Z,2.88
2023-02-23T11:50:25.415Z,3.13
2023-02-23T11:53:01.786Z,2.97
2023-02-23T11:55:30.011Z,2.95
2023-02-23T11:58:29.403Z,2.80
2023-02-23T12:00:58.112Z,4.25
2023-02-23T12:03:26.250Z,3.88
2023-02-23T12:05:57.689Z,3.28
2023-02-23T12:08:31.359Z,3.25
2023-02-23T12:11:00.538Z,2.13
2023-02-23T12:13:37.618Z,3.42
2023-02-23T12:16:11.038Z,2.20
2023-02-23T12:18:44.574Z,2.53
2023-02-23T12:21:11.873Z,1.80
2023-02-23T12:23:41.903Z,2.75
2023-02-23T12:26:13.963Z,2.85
2023-02-23T12:28:46.193Z,4.50
2023-02-23T12:31:25.189Z,2.33
2023-02-23T12:33:56.755Z,2.53
2023-02-23T12:36:35.222Z,2.00
2023-02-23T12:39:06.666Z,2.83
2023-02-23T12:41:41.182Z,3.22
2023-02-23T12:44:15.407Z,2.78
2023-02-23T12:46:48.944Z,1.75
2023-02-23T12:49:35.024Z,2.28
2023-02-23T12:52:22.744Z,2.75
2023-02-23T12:54:49.934Z,2.47
2023-02-23T12:57:32.800Z,4.53
2023-02-23T13:00:20.531Z,4.47
2023-02-23T13:03:02.954Z,3.08
2023-02-23T13:05:38.004Z,3.63
2023-02-23T13:08:19.577Z,5.55
2023-02-23T13:11:00.543Z,2.22
2023-02-23T13:13:50.374Z,2.92
2023-02-23T13:16:56.461Z,2.75
2023-02-23T13:19:44.895Z,2.67
2023-02-23T13:22:33.609Z,2.10
2023-02-23T13:25:05.102Z,2.83
2023-02-23T13:27:37.860Z,3.20
2023-02-23T13:30:05.536Z,2.78
2023-02-23T13:32:34.240Z,3.28
2023-02-23T13:35:06.760Z,3.47
2023-02-23T13:37:45.517Z,2.33
2023-02-23T13:40:19.129Z,3.95
2023-02-23T13:42:46.385Z,2.53
2023-02-23T13:45:23.166Z,2.65
2023-02-23T13:47:50.541Z,3.53
2023-02-23T13:50:56.371Z,2.97
2023-02-23T13:53:50.095Z,2.83
2023-02-23T13:56:18.486Z,3.00
2023-02-23T13:58:47.662Z,2.95
2023-02-23T14:01:27.639Z,2.58
2023-02-23T14:03:56.513Z,2.38
2023-02-23T14:06:25.722Z,2.72
2023-02-23T14:09:00.889Z,2.03
2023-02-23T14:11:29.433Z,2.92
2023-02-23T14:14:01.748Z,2.60
2023-02-23T14:16:29.510Z,2.47
2023-02-23T14:19:15.694Z,2.13
2023-02-23T14:21:50.004Z,2.30
2023-02-23T14:24:27.299Z,2.33
2023-02-23T14:27:12.948Z,2.25
2023-02-23T14:29:41.370Z,2.10
2023-02-23T14:32:28.486Z,2.25
2023-02-23T14:35:00.155Z,1.73
2023-02-23T14:37:33.202Z,2.92
2023-02-23T14:40:26.834Z,2.85
2023-02-23T14:42:58.066Z,3.10
2023-02-23T14:45:30.011Z,1.88
2023-02-23T14:47:59.945Z,2.30
2023-02-23T14:50:29.106Z,3.78
2023-02-23T14:52:57.138Z,3.95
2023-02-23T14:55:24.438Z,6.20
2023-02-23T14:57:54.120Z,8.35
2023-02-23T15:00:28.668Z,5.20
2023-02-23T15:03:04.234Z,6.82
2023-02-23T15:05:32.800Z,6.78
2023-02-23T15:08:08.145Z,6.95
2023-02-23T15:10:40.252Z,7.55
2023-02-23T15:13:11.860Z,11.02
2023-02-23T15:15:45.483Z,10.23
2023-02-23T15:18:50.609Z,8.18
2023-02-23T15:21:20.461Z,7.43
2023-02-23T15:23:53.065Z,8.38
2023-02-23T15:26:28.790Z,8.50
2023-02-23T15:28:57.120Z,10.02
2023-02-23T15:31:24.561Z,7.28
2023-02-23T15:33:51.920Z,6.70
2023-02-23T15:36:22.459Z,7.00
2023-02-23T15:38:51.902Z,7.63
2023-02-23T15:41:25.997Z,10.25
2023-02-23T15:43:53.221Z,12.30
2023-02-23T15:46:26.238Z,7.72
2023-02-23T15:48:54.481Z,8.23
2023-02-23T15:51:36.720Z,6.03
2023-02-23T15:54:13.851Z,7.15
2023-02-23T15:56:41.227Z,7.78
2023-02-23T15:59:13.327Z,6.63
2023-02-23T16:01:45.375Z,6.10
2023-02-23T16:04:15.671Z,4.70
2023-02-23T16:06:52.401Z,5.07
2023-02-23T16:09:24.297Z,5.57
2023-02-23T16:11:52.860Z,5.55
2023-02-23T16:14:21.257Z,6.22
2023-02-23T16:17:04.915Z,5.85
2023-02-23T16:19:41.220Z,4.78
2023-02-23T16:22:12.127Z,4.63
2023-02-23T16:24:39.384Z,4.30
2023-02-23T16:27:06.743Z,5.93
2023-02-23T16:29:41.581Z,5.68
2023-02-23T16:32:16.821Z,4.00
2023-02-23T16:34:51.941Z,3.22
2023-02-23T16:37:23.075Z,3.75
2023-02-23T16:39:51.667Z,3.33
2023-02-23T16:42:24.476Z,2.72
2023-02-23T16:44:51.755Z,3.03
2023-02-23T16:47:25.009Z,2.67
2023-02-23T16:49:52.667Z,2.83
2023-02-23T16:52:25.669Z,2.75
2023-02-23T16:54:55.778Z,2.58
2023-02-23T16:57:27.948Z,3.05
2023-02-23T16:59:56.863Z,2.55
2023-02-23T17:02:24.186Z,3.40
2023-02-23T17:04:51.845Z,2.83
2023-02-23T17:07:22.899Z,3.33
2023-02-23T17:09:51.417Z,2.60
2023-02-23T17:15:15.095Z,3.60
2023-02-23T17:17:42.359Z,5.47
2023-02-23T17:20:15.656Z,3.67
2023-02-23T17:22:43.743Z,3.22
2023-02-23T17:25:11.781Z,2.55
2023-02-23T17:27:38.994Z,2.22
2023-02-23T17:30:07.215Z,3.00
2023-02-23T17:32:34.630Z,2.75
2023-02-23T17:35:01.917Z,3.15
2023-02-23T17:37:29.473Z,2.60
2023-02-23T17:39:56.664Z,2.95
2023-02-23T17:42:33.838Z,3.78
2023-02-23T17:45:01.827Z,3.47
2023-02-23T17:47:32.608Z,2.88
2023-02-23T17:50:00.726Z,2.45
2023-02-23T17:52:28.860Z,3.03
2023-02-23T17:54:56.709Z,3.60
2023-02-23T17:57:28.059Z,5.03
2023-02-23T17:59:55.260Z,4.07
2023-02-23T18:02:22.540Z,3.33
2023-02-23T18:04:50.410Z,4.45
2023-02-23T18:07:18.361Z,5.32
2023-02-23T18:09:45.868Z,4.75
2023-02-23T18:12:13.254Z,5.55
2023-02-23T18:14:40.684Z,5.10
2023-02-23T18:17:07.933Z,3.05
2023-02-23T18:19:35.128Z,3.38
2023-02-23T18:22:02.396Z,2.83
2023-02-23T18:24:31.705Z,2.65
2023-02-23T18:27:02.566Z,3.05
2023-02-23T18:29:30.688Z,3.35
2023-02-23T18:31:58.416Z,2.40
2023-02-23T18:34:27.368Z,3.30
2023-02-23T18:36:55.007Z,2.13
2023-02-23T18:39:22.651Z,2.45
2023-02-23T18:41:50.392Z,3.55
2023-02-23T18:44:18.576Z,3.38
2023-02-23T18:46:46.609Z,2.40
2023-02-23T18:49:15.239Z,2.30
2023-02-23T18:51:43.348Z,2.75
2023-02-23T18:54:16.758Z,3.28
2023-02-23T18:56:45.044Z,5.07
2023-02-23T18:59:12.453Z,7.60
2023-02-23T19:01:40.279Z,5.15
2023-02-23T19:04:08.932Z,5.65
2023-02-23T19:06:39.045Z,5.00
2023-02-23T19:09:09.743Z,4.22
2023-02-23T19:11:37.951Z,4.20
2023-02-23T19:14:06.582Z,4.50
2023-02-23T19:16:34.864Z,4.45
2023-02-23T19:19:03.066Z,5.88
2023-02-23T19:21:30.313Z,3.42
2023-02-23T19:23:57.962Z,3.90
2023-02-23T19:26:25.951Z,5.50
2023-02-23T19:28:53.307Z,3.65
2023-02-23T19:31:22.755Z,5.05
2023-02-23T19:33:50.808Z,3.83
2023-02-23T19:36:19.213Z,4.72
2023-02-23T19:38:46.974Z,5.18
2023-02-23T19:41:15.650Z,5.65
2023-02-23T19:43:42.868Z,7.75
2023-02-23T19:46:11.686Z,9.15
2023-02-23T19:48:39.322Z,9.95
2023-02-23T19:51:09.629Z,7.82
2023-02-23T19:53:37.401Z,9.38
2023-02-23T19:56:06.231Z,11.82
2023-02-23T19:58:33.479Z,8.80
2023-02-23T20:01:07.455Z,7.88
2023-02-23T20:03:34.733Z,6.80
2023-02-23T20:06:05.155Z,9.00
2023-02-23T20:08:32.724Z,8.43
2023-02-23T20:11:00.426Z,10.52
2023-02-23T20:13:27.298Z,10.48
2023-02-23T20:16:04.632Z,8.68
2023-02-23T20:18:33.433Z,9.63
2023-02-23T20:21:00.268Z,9.82
2023-02-23T20:23:27.350Z,11.00
2023-02-23T20:25:54.139Z,9.55
2023-02-23T20:28:21.421Z,8.15
2023-02-23T20:30:48.343Z,11.93
2023-02-23T20:33:15.500Z,11.13
2023-02-23T20:35:42.851Z,12.77
2023-02-23T20:38:10.308Z,13.20
2023-02-23T20:40:37.419Z,15.68
2023-02-23T20:43:04.600Z,12.23
2023-02-23T20:45:31.538Z,16.67
2023-02-23T20:47:58.419Z,21.05
2023-02-23T20:50:28.703Z,17.92
2023-02-23T20:52:56.344Z,17.55
2023-02-23T20:55:27.284Z,18.95
2023-02-23T20:57:55.667Z,20.90
2023-02-23T21:00:32.137Z,17.50
2023-02-23T21:03:01.467Z,17.25
2023-02-23T21:05:31.830Z,21.42
2023-02-23T21:08:01.387Z,23.77
2023-02-23T21:10:34.069Z,25.15
2023-02-23T21:13:01.168Z,23.70
2023-02-23T21:15:29.932Z,26.33
2023-02-23T21:17:58.424Z,23.92
2023-02-23T21:20:27.964Z,25.98
2023-02-23T21:22:55.645Z,19.25
2023-02-23T21:25:25.060Z,22.90
2023-02-23T21:27:51.995Z,22.60
2023-02-23T21:30:20.962Z,23.83
2023-02-23T21:32:49.786Z,23.35
2023-02-23T21:35:17.596Z,22.70
2023-02-23T21:37:45.432Z,24.45
2023-02-23T21:40:15.416Z,26.70
2023-02-23T21:42:43.880Z,26.02
2023-02-23T21:45:15.268Z,25.30
2023-02-23T21:47:44.722Z,24.95
2023-02-23T21:50:14.943Z,26.88
2023-02-23T21:52:43.782Z,23.65
2023-02-23T21:55:21.158Z,22.75
2023-02-23T21:57:49.761Z,24.80
2023-02-23T22:00:17.076Z,26.90
2023-02-23T22:02:46.599Z,26.75
2023-02-23T22:05:15.455Z,23.42
2023-02-23T22:07:47.148Z,23.20
2023-02-23T22:10:13.920Z,24.70
2023-02-23T22:12:41.828Z,28.35
2023-02-23T22:15:10.435Z,27.67
2023-02-23T22:17:38.647Z,24.33
2023-02-23T22:20:07.394Z,25.02
2023-02-23T22:22:36.223Z,27.60
2023-02-23T22:25:07.680Z,23.02
2023-02-23T22:27:34.665Z,20.85
2023-02-23T22:30:01.915Z,19.45
2023-02-23T22:32:32.938Z,17.33
2023-02-23T22:35:01.009Z,19.58
2023-02-23T22:37:32.121Z,19.13
2023-02-23T22:40:11.571Z,18.15
2023-02-23T22:42:38.458Z,17.23
2023-02-23T22:45:06.191Z,19.10
2023-02-23T22:47:34.959Z,20.23
2023-02-23T22:50:02.136Z,20.23
2023-02-23T22:52:29.956Z,17.48
2023-02-23T22:54:56.842Z,20.35
2023-02-23T22:57:23.650Z,18.33
2023-02-23T22:59:59.960Z,19.75
2023-02-23T23:02:32.061Z,25.35
2023-02-23T23:05:02.101Z,20.65
2023-02-23T23:07:31.007Z,19.35
2023-02-23T23:09:58.520Z,21.35
2023-02-23T23:12:27.905Z,17.77
2023-02-23T23:14:56.650Z,20.15
2023-02-23T23:17:23.522Z,21.08
2023-02-23T23:19:50.373Z,17.48
2023-02-23T23:22:17.459Z,17.55
2023-02-23T23:24:46.176Z,13.15
2023-02-23T23:27:14.711Z,17.48
2023-02-23T23:29:45.722Z,16.33
2023-02-23T23:32:17.512Z,14.43
2023-02-23T23:34:49.143Z,13.55
2023-02-23T23:37:17.800Z,12.75
2023-02-23T23:39:45.027Z,14.55
2023-02-23T23:42:12.914Z,17.27
2023-02-23T23:44:39.829Z,19.05
2023-02-23T23:47:06.993Z,19.42
2023-02-23T23:49:38.587Z,15.50
2023-02-23T23:52:06.012Z,15.45
2023-02-23T23:54:38.921Z,12.55
2023-02-23T23:57:06.564Z,13.68
2023-02-23T23:59:34.768Z,13.85
